createdAt,value
2019-05-21T00:01:06.589Z,99232.00
2019-05-21T00:03:39.550Z,99238.00
2019-05-21T00:06:12.571Z,99242.00
2019-05-21T00:08:45.605Z,99238.00
2019-05-21T00:11:18.704Z,99228.00
2019-05-21T00:13:51.816Z,99238.00
2019-05-21T00:16:24.917Z,99247.00
2019-05-21T00:18:57.983Z,99236.00
2019-05-21T00:21:31.040Z,99241.00
2019-05-21T00:24:04.186Z,99255.00
2019-05-21T00:26:37.279Z,99247.00
2019-05-21T00:30:05.437Z,99251.00
2019-05-21T00:33:33.805Z,99243.00
2019-05-21T00:37:03.340Z,99236.00
2019-05-21T00:40:31.729Z,99248.00
2019-05-21T00:43:05.925Z,99244.00
2019-05-21T00:45:39.099Z,99258.00
2019-05-21T00:48:12.073Z,99262.00
2019-05-21T00:50:45.356Z,99256.00
2019-05-21T00:53:18.553Z,99254.00
2019-05-21T00:55:51.534Z,99250.00
2019-05-21T00:58:24.933Z,99240.00
2019-05-21T01:00:57.982Z,99247.00
2019-05-21T01:03:30.962Z,99246.00
2019-05-21T01:06:04.014Z,99247.00
2019-05-21T01:08:37.062Z,99246.00
2019-05-21T01:11:10.054Z,99252.00
2019-05-21T01:13:43.019Z,99253.00
2019-05-21T01:16:16.056Z,99256.00
2019-05-21T01:18:49.114Z,99249.00
2019-05-21T01:21:22.161Z,99247.00
2019-05-21T01:23:55.119Z,99240.00
2019-05-21T01:26:28.127Z,99237.00
2019-05-21T01:29:01.204Z,99238.00
2019-05-21T01:31:34.245Z,99238.00
2019-05-21T01:34:07.318Z,99239.00
2019-05-21T01:36:40.549Z,99229.00
2019-05-21T01:39:13.487Z,99227.00
2019-05-21T01:41:46.561Z,99227.00
2019-05-21T01:44:20.648Z,99226.00
2019-05-21T01:46:53.561Z,99227.00
2019-05-21T01:49:26.769Z,99225.00
2019-05-21T01:51:59.827Z,99228.00
2019-05-21T01:54:32.817Z,99226.00
2019-05-21T01:57:05.819Z,99219.00
2019-05-21T01:59:38.852Z,99226.00
2019-05-21T02:02:11.958Z,99222.00
2019-05-21T02:04:45.091Z,99216.00
2019-05-21T02:07:18.071Z,99208.00
2019-05-21T02:09:57.076Z,99207.00
2019-05-21T02:12:30.035Z,99207.00
2019-05-21T02:15:03.766Z,99213.00
2019-05-21T02:17:36.852Z,99205.00
2019-05-21T02:20:09.960Z,99190.00
2019-05-21T02:22:42.974Z,99184.00
2019-05-21T02:25:16.253Z,99187.00
2019-05-21T02:27:49.304Z,99180.00
2019-05-21T02:30:22.359Z,99180.00
2019-05-21T02:32:55.402Z,99175.00
2019-05-21T02:35:28.647Z,99193.00
2019-05-21T02:38:02.006Z,99210.00
2019-05-21T02:40:34.942Z,99218.00
2019-05-21T02:43:08.030Z,99221.00
2019-05-21T02:45:41.071Z,99233.00
2019-05-21T02:48:14.112Z,99231.00
2019-05-21T02:50:47.094Z,99232.00
2019-05-21T02:53:20.139Z,99228.00
2019-05-21T02:55:53.195Z,99234.00
2019-05-21T02:58:26.355Z,99225.00
2019-05-21T03:01:17.863Z,99231.00
2019-05-21T03:03:51.127Z,99221.00
2019-05-21T03:06:24.161Z,99223.00
2019-05-21T03:08:57.157Z,99219.00
2019-05-21T03:11:30.392Z,99209.00
2019-05-21T03:14:03.551Z,99208.00
2019-05-21T03:16:36.536Z,99198.00
2019-05-21T03:19:09.834Z,99191.00
2019-05-21T03:21:42.855Z,99200.00
2019-05-21T03:24:18.872Z,99199.00
2019-05-21T03:26:51.843Z,99199.00
2019-05-21T03:29:24.941Z,99198.00
2019-05-21T03:31:58.046Z,99189.00
2019-05-21T03:34:31.083Z,99200.00
2019-05-21T03:37:04.184Z,99200.00
2019-05-21T03:39:37.281Z,99209.00
2019-05-21T03:42:10.209Z,99206.00
2019-05-21T03:44:58.850Z,99217.00
2019-05-21T03:47:19.271Z,99204.00
2019-05-21T03:49:52.554Z,99220.00
2019-05-21T03:52:25.627Z,99222.00
2019-05-21T03:55:02.851Z,99232.00
2019-05-21T03:57:33.807Z,99240.00
2019-05-21T04:00:08.780Z,99236.00
2019-05-21T04:02:41.880Z,99231.00
2019-05-21T04:05:23.651Z,99232.00
2019-05-21T04:07:56.748Z,99230.00
2019-05-21T04:10:29.806Z,99227.00
2019-05-21T04:13:06.636Z,99233.00
2019-05-21T04:16:15.956Z,99226.00
2019-05-21T04:18:54.711Z,99220.00
2019-05-21T04:21:27.514Z,99204.00
2019-05-21T04:24:00.425Z,99195.00
2019-05-21T04:26:33.215Z,99187.00
2019-05-21T04:29:07.165Z,99188.00
2019-05-21T04:31:39.978Z,99186.00
2019-05-21T04:34:12.838Z,99185.00
2019-05-21T04:36:45.727Z,99193.00
2019-05-21T04:39:18.571Z,99194.00
2019-05-21T04:41:51.411Z,99196.00
2019-05-21T04:44:24.243Z,99193.00
2019-05-21T04:46:59.292Z,99196.00
2019-05-21T04:49:32.129Z,99198.00
2019-05-21T04:52:04.970Z,99199.00
2019-05-21T04:54:37.865Z,99192.00
2019-05-21T04:57:10.654Z,99207.00
2019-05-21T04:59:43.495Z,99198.00
2019-05-21T05:02:17.430Z,99192.00
2019-05-21T05:04:50.414Z,99202.00
2019-05-21T05:07:28.419Z,99205.00
2019-05-21T05:09:58.135Z,99203.00
2019-05-21T05:12:30.967Z,99202.00
2019-05-21T05:15:04.808Z,99197.00
2019-05-21T05:17:37.647Z,99208.00
2019-05-21T05:20:10.853Z,99223.00
2019-05-21T05:22:43.654Z,99216.00
2019-05-21T05:25:16.645Z,99221.00
2019-05-21T05:27:49.490Z,99220.00
2019-05-21T05:30:22.386Z,99222.00
2019-05-21T05:32:55.607Z,99205.00
2019-05-21T05:35:28.471Z,99209.00
2019-05-21T05:38:01.297Z,99198.00
2019-05-21T05:40:34.158Z,99198.00
2019-05-21T05:43:07.033Z,99195.00
2019-05-21T05:45:40.610Z,99202.00
2019-05-21T05:48:14.954Z,99192.00
2019-05-21T05:50:50.108Z,99198.00
2019-05-21T05:53:22.940Z,99200.00
2019-05-21T05:55:55.790Z,99195.00
2019-05-21T05:58:28.621Z,99202.00
2019-05-21T06:01:01.474Z,99208.00
2019-05-21T06:03:34.322Z,99222.00
2019-05-21T06:06:07.151Z,99223.00
2019-05-21T06:08:39.977Z,99221.00
2019-05-21T06:11:12.985Z,99226.00
2019-05-21T06:13:45.905Z,99231.00
2019-05-21T06:16:18.824Z,99241.00
2019-05-21T06:18:51.635Z,99244.00
2019-05-21T06:21:24.554Z,99248.00
2019-05-21T06:23:57.431Z,99243.00
2019-05-21T06:26:30.310Z,99258.00
2019-05-21T06:29:03.265Z,99256.00
2019-05-21T06:31:36.095Z,99263.00
2019-05-21T06:34:09.005Z,99276.00
2019-05-21T06:36:41.854Z,99276.00
2019-05-21T06:39:14.666Z,99281.00
2019-05-21T06:41:47.524Z,99281.00
2019-05-21T06:44:20.538Z,99281.00
2019-05-21T06:46:53.372Z,99265.00
2019-05-21T06:49:26.254Z,99276.00
2019-05-21T06:51:59.412Z,99279.00
2019-05-21T06:54:32.230Z,99290.00
2019-05-21T06:57:05.309Z,99289.00
2019-05-21T06:59:38.115Z,99277.00
2019-05-21T07:02:10.986Z,99273.00
2019-05-21T07:04:43.850Z,99280.00
2019-05-21T07:07:16.669Z,99275.00
2019-05-21T07:09:51.171Z,99270.00
2019-05-21T07:12:24.032Z,99284.00
2019-05-21T07:14:56.860Z,99289.00
2019-05-21T07:17:29.662Z,99287.00
2019-05-21T07:20:03.785Z,99292.00
2019-05-21T07:22:36.883Z,99295.00
2019-05-21T07:25:11.547Z,99307.00
2019-05-21T07:27:44.412Z,99299.00
2019-05-21T07:30:17.441Z,99309.00
2019-05-21T07:32:50.393Z,99296.00
2019-05-21T07:35:23.383Z,99297.00
2019-05-21T07:37:56.269Z,99295.00
2019-05-21T07:40:29.109Z,99296.00
2019-05-21T07:43:02.056Z,99311.00
2019-05-21T07:45:34.881Z,99329.00
2019-05-21T07:48:08.198Z,99326.00
2019-05-21T07:50:41.172Z,99327.00
2019-05-21T07:53:13.965Z,99335.00
2019-05-21T07:55:46.797Z,99351.00
2019-05-21T07:58:19.635Z,99341.00
2019-05-21T08:00:52.457Z,99343.00
2019-05-21T08:03:25.283Z,99364.00
2019-05-21T08:05:58.098Z,99368.00
2019-05-21T08:08:30.964Z,99365.00
2019-05-21T08:11:03.981Z,99363.00
2019-05-21T08:13:36.835Z,99381.00
2019-05-21T08:16:09.692Z,99367.00
2019-05-21T08:18:42.594Z,99372.00
2019-05-21T08:21:15.522Z,99352.00
2019-05-21T08:23:48.435Z,99349.00
2019-05-21T08:26:21.309Z,99342.00
2019-05-21T08:28:54.154Z,99334.00
2019-05-21T08:31:26.963Z,99347.00
2019-05-21T08:33:59.894Z,99357.00
2019-05-21T08:36:32.706Z,99371.00
2019-05-21T08:39:07.346Z,99377.00
2019-05-21T08:41:40.282Z,99373.00
2019-05-21T08:44:13.124Z,99390.00
2019-05-21T08:46:46.008Z,99396.00
2019-05-21T08:49:18.867Z,99421.00
2019-05-21T08:51:51.698Z,99436.00
2019-05-21T08:54:50.342Z,99423.00
2019-05-21T08:57:23.308Z,99440.00
2019-05-21T08:59:56.327Z,99437.00
2019-05-21T09:02:29.106Z,99428.00
2019-05-21T09:05:02.080Z,99444.00
2019-05-21T09:07:35.116Z,99443.00
2019-05-21T09:10:08.757Z,99451.00
2019-05-21T09:12:41.610Z,99448.00
2019-05-21T09:15:16.477Z,99452.00
2019-05-21T09:17:49.243Z,99464.00
2019-05-21T09:20:23.175Z,99466.00
2019-05-21T09:22:56.986Z,99471.00
2019-05-21T09:25:30.048Z,99468.00
2019-05-21T09:28:04.054Z,99477.00
2019-05-21T09:30:37.040Z,99475.00
2019-05-21T09:33:10.894Z,99473.00
2019-05-21T09:35:43.698Z,99482.00
2019-05-21T09:38:16.530Z,99488.00
2019-05-21T09:40:49.349Z,99483.00
2019-05-21T09:43:22.168Z,99485.00
2019-05-21T09:45:54.985Z,99483.00
2019-05-21T09:48:27.844Z,99485.00
2019-05-21T09:51:00.644Z,99492.00
2019-05-21T09:53:34.608Z,99497.00
2019-05-21T09:56:27.058Z,99504.00
2019-05-21T09:59:06.961Z,99503.00
2019-05-21T10:01:47.906Z,99507.00
2019-05-21T10:04:21.478Z,99520.00
2019-05-21T10:06:54.600Z,99522.00
2019-05-21T10:09:28.003Z,99521.00
2019-05-21T10:12:01.328Z,99528.00
2019-05-21T10:14:34.570Z,99537.00
2019-05-21T10:17:07.543Z,99539.00
2019-05-21T10:19:40.559Z,99521.00
2019-05-21T10:22:13.652Z,99533.00
2019-05-21T10:24:47.030Z,99537.00
2019-05-21T10:27:21.335Z,99543.00
2019-05-21T10:29:54.731Z,99534.00
2019-05-21T10:32:28.044Z,99551.00
2019-05-21T10:35:01.229Z,99547.00
2019-05-21T10:37:34.398Z,99555.00
2019-05-21T10:40:08.092Z,99561.00
2019-05-21T10:42:41.744Z,99550.00
2019-05-21T10:45:14.983Z,99570.00
2019-05-21T10:47:47.943Z,99556.00
2019-05-21T10:50:20.929Z,99555.00
2019-05-21T10:52:53.978Z,99554.00
2019-05-21T10:55:26.826Z,99555.00
2019-05-21T10:57:59.771Z,99564.00
2019-05-21T11:00:32.814Z,99553.00
2019-05-21T11:03:11.433Z,99546.00
2019-05-21T11:05:47.187Z,99560.00
2019-05-21T11:08:24.158Z,99560.00
2019-05-21T11:10:54.839Z,99546.00
2019-05-21T11:13:28.244Z,99553.00
2019-05-21T11:16:01.145Z,99543.00
2019-05-21T11:18:34.001Z,99571.00
2019-05-21T11:21:07.149Z,99575.00
2019-05-21T11:23:40.022Z,99592.00
2019-05-21T11:26:12.963Z,99596.00
2019-05-21T11:28:45.830Z,99601.00
2019-05-21T11:31:18.697Z,99592.00
2019-05-21T11:33:51.675Z,99606.00
2019-05-21T11:36:24.513Z,99618.00
2019-05-21T11:38:57.377Z,99608.00
2019-05-21T11:41:30.218Z,99625.00
2019-05-21T11:44:03.212Z,99627.00
2019-05-21T11:46:36.036Z,99628.00
2019-05-21T11:49:08.855Z,99628.00
2019-05-21T11:51:41.963Z,99642.00
2019-05-21T11:54:14.793Z,99635.00
2019-05-21T11:56:47.647Z,99647.00
2019-05-21T11:59:20.496Z,99649.00
2019-05-21T12:01:53.317Z,99651.00
2019-05-21T12:04:27.277Z,99657.00
2019-05-21T12:07:03.313Z,99664.00
2019-05-21T12:09:35.109Z,99665.00
2019-05-21T12:12:07.998Z,99673.00
2019-05-21T12:14:41.082Z,99675.00
2019-05-21T12:17:13.892Z,99686.00
2019-05-21T12:19:48.091Z,99678.00
2019-05-21T12:22:20.957Z,99683.00
2019-05-21T12:24:53.892Z,99690.00
2019-05-21T12:27:26.835Z,99697.00
2019-05-21T12:29:59.780Z,99692.00
2019-05-21T12:32:32.640Z,99701.00
2019-05-21T12:35:05.815Z,99709.00
2019-05-21T12:37:38.674Z,99719.00
2019-05-21T12:40:13.610Z,99707.00
2019-05-21T12:42:46.519Z,99720.00
2019-05-21T12:45:19.328Z,99716.00
2019-05-21T12:47:52.189Z,99706.00
2019-05-21T12:50:25.145Z,99722.00
2019-05-21T12:52:58.061Z,99720.00
2019-05-21T12:55:31.011Z,99717.00
2019-05-21T12:58:03.911Z,99712.00
2019-05-21T13:00:38.333Z,99719.00
2019-05-21T13:03:11.263Z,99716.00
2019-05-21T13:05:44.107Z,99714.00
2019-05-21T13:08:17.071Z,99718.00
2019-05-21T13:10:49.929Z,99707.00
2019-05-21T13:13:22.777Z,99721.00
2019-05-21T13:15:55.708Z,99705.00
2019-05-21T13:18:29.640Z,99717.00
2019-05-21T13:21:02.483Z,99718.00
2019-05-21T13:23:35.348Z,99722.00
2019-05-21T13:26:08.924Z,99708.00
2019-05-21T13:28:42.003Z,99712.00
2019-05-21T13:31:14.862Z,99717.00
2019-05-21T13:33:47.728Z,99729.00
2019-05-21T13:36:20.624Z,99726.00
2019-05-21T13:38:53.576Z,99730.00
2019-05-21T13:41:26.531Z,99723.00
2019-05-21T13:43:59.419Z,99747.00
2019-05-21T13:46:35.444Z,99755.00
2019-05-21T13:49:07.027Z,99764.00
2019-05-21T13:51:39.921Z,99777.00
2019-05-21T13:54:12.796Z,99782.00
2019-05-21T13:56:45.767Z,99785.00
2019-05-21T13:59:18.877Z,99790.00
2019-05-21T14:01:51.703Z,99802.00
2019-05-21T14:04:24.547Z,99806.00
2019-05-21T14:06:57.353Z,99810.00
2019-05-21T14:09:30.261Z,99812.00
2019-05-21T14:12:03.117Z,99826.00
2019-05-21T14:14:35.994Z,99827.00
2019-05-21T14:17:08.997Z,99828.00
2019-05-21T14:19:42.060Z,99832.00
2019-05-21T14:22:14.971Z,99834.00
2019-05-21T14:24:47.781Z,99841.00
2019-05-21T14:27:20.708Z,99835.00
2019-05-21T14:29:53.587Z,99841.00
2019-05-21T14:32:26.508Z,99847.00
2019-05-21T14:35:01.719Z,99841.00
2019-05-21T14:37:34.272Z,99849.00
2019-05-21T14:40:09.591Z,99844.00
2019-05-21T14:42:58.101Z,99860.00
2019-05-21T14:45:17.240Z,99857.00
2019-05-21T14:47:50.105Z,99856.00
2019-05-21T14:50:23.081Z,99862.00
2019-05-21T14:52:55.932Z,99863.00
2019-05-21T14:55:28.834Z,99869.00
2019-05-21T14:58:01.663Z,99870.00
2019-05-21T15:00:36.467Z,99857.00
2019-05-21T15:03:24.237Z,99855.00
2019-05-21T15:05:44.105Z,99854.00
2019-05-21T15:08:16.924Z,99864.00
2019-05-21T15:10:49.932Z,99862.00
2019-05-21T15:13:22.866Z,99864.00
2019-05-21T15:15:55.748Z,99868.00
2019-05-21T15:18:28.606Z,99867.00
2019-05-21T15:21:19.187Z,99875.00
2019-05-21T15:23:52.726Z,99875.00
2019-05-21T15:26:27.339Z,99883.00
2019-05-21T15:29:00.349Z,99882.00
2019-05-21T15:31:33.230Z,99893.00
2019-05-21T15:34:06.179Z,99886.00
2019-05-21T15:36:39.035Z,99885.00
2019-05-21T15:39:11.902Z,99888.00
2019-05-21T15:41:44.892Z,99896.00
2019-05-21T15:44:17.784Z,99903.00
2019-05-21T15:46:52.045Z,99907.00
2019-05-21T15:49:35.586Z,99909.00
2019-05-21T15:52:00.105Z,99902.00
2019-05-21T15:54:33.058Z,99910.00
2019-05-21T15:57:05.892Z,99906.00
2019-05-21T15:59:38.762Z,99917.00
2019-05-21T16:02:11.640Z,99913.00
2019-05-21T16:04:44.542Z,99914.00
2019-05-21T16:07:17.580Z,99918.00
2019-05-21T16:09:50.404Z,99925.00
2019-05-21T16:12:23.510Z,99930.00
2019-05-21T16:14:56.350Z,99931.00
2019-05-21T16:17:29.713Z,99926.00
2019-05-21T16:20:04.614Z,99925.00
2019-05-21T16:22:37.619Z,99924.00
2019-05-21T16:25:11.222Z,99921.00
2019-05-21T16:27:44.173Z,99917.00
2019-05-21T16:30:17.103Z,99922.00
2019-05-21T16:32:50.526Z,99909.00
2019-05-21T16:35:23.500Z,99914.00
2019-05-21T16:37:56.337Z,99922.00
2019-05-21T16:40:29.223Z,99918.00
2019-05-21T16:43:02.085Z,99913.00
2019-05-21T16:45:34.922Z,99925.00
2019-05-21T16:48:08.146Z,99928.00
2019-05-21T16:50:41.110Z,99924.00
2019-05-21T16:53:14.012Z,99936.00
2019-05-21T16:55:46.873Z,99944.00
2019-05-21T16:58:19.758Z,99936.00
2019-05-21T17:00:52.857Z,99936.00
2019-05-21T17:03:25.757Z,99942.00
2019-05-21T17:05:58.695Z,99951.00
2019-05-21T17:08:31.517Z,99952.00
2019-05-21T17:11:04.654Z,99944.00
2019-05-21T17:13:37.520Z,99942.00
2019-05-21T17:16:10.383Z,99943.00
2019-05-21T17:18:43.245Z,99939.00
2019-05-21T17:21:16.135Z,99934.00
2019-05-21T17:23:49.033Z,99946.00
2019-05-21T17:26:21.950Z,99951.00
2019-05-21T17:28:54.802Z,99959.00
2019-05-21T17:31:27.795Z,99968.00
2019-05-21T17:34:00.736Z,99975.00
2019-05-21T17:36:33.705Z,99972.00
2019-05-21T17:39:06.671Z,99984.00
2019-05-21T17:41:39.631Z,99981.00
2019-05-21T17:44:12.504Z,99971.00
2019-05-21T17:46:45.576Z,99977.00
2019-05-21T17:49:18.582Z,99984.00
2019-05-21T17:51:51.892Z,99985.00
2019-05-21T17:54:24.965Z,99980.00
2019-05-21T17:56:58.076Z,99983.00
2019-05-21T17:59:31.085Z,99988.00
2019-05-21T18:02:08.625Z,99996.00
2019-05-21T18:04:43.288Z,99998.00
2019-05-21T18:07:16.491Z,100003.00
2019-05-21T18:09:49.839Z,99995.00
2019-05-21T18:12:31.537Z,100008.00
2019-05-21T18:14:57.972Z,100003.00
2019-05-21T18:17:32.168Z,100008.00
2019-05-21T18:20:07.746Z,100015.00
2019-05-21T18:22:42.721Z,100021.00
2019-05-21T18:25:15.742Z,100027.00
2019-05-21T18:27:48.853Z,100030.00
2019-05-21T18:30:22.539Z,100041.00
2019-05-21T18:32:55.890Z,100039.00
2019-05-21T18:35:28.786Z,100049.00
2019-05-21T18:38:01.722Z,100044.00
2019-05-21T18:40:34.851Z,100053.00
2019-05-21T18:43:08.054Z,100058.00
2019-05-21T18:45:40.961Z,100062.00
2019-05-21T18:48:14.111Z,100062.00
2019-05-21T18:50:46.998Z,100073.00
2019-05-21T18:53:21.034Z,100080.00
2019-05-21T18:55:54.031Z,100081.00
2019-05-21T18:58:27.822Z,100081.00
2019-05-21T19:01:00.690Z,100082.00
2019-05-21T19:03:33.592Z,100091.00
2019-05-21T19:06:06.649Z,100087.00
2019-05-21T19:08:39.862Z,100100.00
2019-05-21T19:11:13.146Z,100103.00
2019-05-21T19:13:46.211Z,100096.00
2019-05-21T19:16:19.117Z,100107.00
2019-05-21T19:18:52.018Z,100111.00
2019-05-21T19:21:25.056Z,100117.00
2019-05-21T19:23:58.060Z,100126.00
2019-05-21T19:26:31.688Z,100126.00
2019-05-21T19:29:07.923Z,100141.00
2019-05-21T19:31:40.585Z,100137.00
2019-05-21T19:34:13.558Z,100141.00
2019-05-21T19:36:46.572Z,100139.00
2019-05-21T19:39:19.454Z,100154.00
2019-05-21T19:41:52.317Z,100154.00
2019-05-21T19:44:25.837Z,100147.00
2019-05-21T19:46:58.703Z,100160.00
2019-05-21T19:49:31.628Z,100158.00
2019-05-21T19:52:04.719Z,100157.00
2019-05-21T19:54:37.903Z,100157.00
2019-05-21T19:57:10.816Z,100165.00
2019-05-21T19:59:43.720Z,100156.00
2019-05-21T20:02:17.137Z,100163.00
2019-05-21T20:04:51.564Z,100172.00
2019-05-21T20:07:26.484Z,100166.00
2019-05-21T20:09:59.757Z,100173.00
2019-05-21T20:12:33.194Z,100163.00
2019-05-21T20:15:07.013Z,100175.00
2019-05-21T20:17:42.841Z,100168.00
2019-05-21T20:20:19.350Z,100168.00
2019-05-21T20:22:52.765Z,100176.00
2019-05-21T20:25:27.242Z,100176.00
2019-05-21T20:28:01.259Z,100177.00
2019-05-21T20:30:34.289Z,100180.00
2019-05-21T20:33:07.438Z,100177.00
2019-05-21T20:35:42.386Z,100167.00
2019-05-21T20:38:16.818Z,100175.00
2019-05-21T20:40:51.396Z,100170.00
2019-05-21T20:43:25.976Z,100174.00
2019-05-21T20:46:00.046Z,100178.00
2019-05-21T20:48:34.013Z,100172.00
2019-05-21T20:51:09.066Z,100178.00
2019-05-21T20:53:42.222Z,100180.00
2019-05-21T20:56:16.655Z,100179.00
2019-05-21T20:58:50.425Z,100187.00
2019-05-21T21:01:24.504Z,100182.00
2019-05-21T21:03:57.866Z,100187.00
2019-05-21T21:06:35.163Z,100185.00
2019-05-21T21:09:10.117Z,100183.00
2019-05-21T21:11:43.398Z,100182.00
2019-05-21T21:14:18.654Z,100188.00
2019-05-21T21:16:51.717Z,100183.00
2019-05-21T21:19:24.881Z,100184.00
2019-05-21T21:21:57.786Z,100185.00
2019-05-21T21:24:31.728Z,100198.00
2019-05-21T21:27:05.257Z,100188.00
2019-05-21T21:29:38.136Z,100193.00
2019-05-21T21:32:10.992Z,100192.00
2019-05-21T21:34:43.841Z,100192.00
2019-05-21T21:37:16.869Z,100197.00
2019-05-21T21:39:49.884Z,100200.00
2019-05-21T21:42:22.722Z,100193.00
2019-05-21T21:44:55.540Z,100194.00
2019-05-21T21:47:28.772Z,100191.00
2019-05-21T21:50:01.828Z,100188.00
2019-05-21T21:52:35.304Z,100196.00
2019-05-21T21:55:08.824Z,100191.00
2019-05-21T21:57:41.713Z,100199.00
2019-05-21T22:01:32.934Z,100192.00
2019-05-21T22:04:07.879Z,100196.00
2019-05-21T22:06:43.365Z,100192.00
2019-05-21T22:09:20.727Z,100198.00
2019-05-21T22:11:54.864Z,100194.00
2019-05-21T22:14:29.556Z,100205.00
2019-05-21T22:17:03.629Z,100202.00
2019-05-21T22:19:39.110Z,100198.00
2019-05-21T22:22:12.762Z,100211.00
2019-05-21T22:24:45.753Z,100202.00
2019-05-21T22:27:19.862Z,100203.00
2019-05-21T22:29:53.946Z,100201.00
2019-05-21T22:32:27.182Z,100192.00
2019-05-21T22:35:00.018Z,100205.00
2019-05-21T22:37:33.129Z,100206.00
2019-05-21T22:40:06.565Z,100197.00
2019-05-21T22:42:40.618Z,100201.00
2019-05-21T22:45:13.627Z,100203.00
2019-05-21T22:47:46.558Z,100200.00
2019-05-21T22:50:19.376Z,100201.00
2019-05-21T22:52:52.275Z,100210.00
2019-05-21T22:55:25.148Z,100203.00
2019-05-21T22:57:57.987Z,100203.00
2019-05-21T23:00:32.120Z,100211.00
2019-05-21T23:03:04.975Z,100198.00
2019-05-21T23:05:38.103Z,100201.00
2019-05-21T23:08:12.860Z,100193.00
2019-05-21T23:10:45.964Z,100198.00
2019-05-21T23:13:18.798Z,100185.00
2019-05-21T23:15:52.827Z,100184.00
2019-05-21T23:18:27.741Z,100187.00
2019-05-21T23:21:13.803Z,100189.00
2019-05-21T23:23:48.960Z,100186.00
2019-05-21T23:26:21.766Z,100185.00
2019-05-21T23:28:54.836Z,100189.00
2019-05-21T23:31:28.376Z,100157.00
2019-05-21T23:34:03.140Z,100169.00
2019-05-21T23:36:36.374Z,100171.00
2019-05-21T23:39:14.490Z,100179.00
2019-05-21T23:41:47.887Z,100179.00
2019-05-21T23:44:20.787Z,100184.00
2019-05-21T23:46:53.644Z,100186.00
2019-05-21T23:49:26.475Z,100186.00
2019-05-21T23:51:59.502Z,100174.00
2019-05-21T23:54:32.941Z,100185.00
2019-05-21T23:57:09.889Z,100183.00
2019-05-21T23:59:42.778Z,100184.00
